Montrose Heights, Virginia
Current Conditions -  °F | °C
As of 1:54 AM on Sunday 23 Nov 2014 (Local Time) from KRIC Reporting Station
Few Clouds Few Clouds  
Wind Chill: 37°   Ceiling: Unl
Heat Index: 37°   Visibility: 10mi
Dew Point: 18°   Wind: 0mph
Humidity: 46%   Direction: NA
Pressure: 30.29"   Gusts: NA
Location:  37.4458°N, 77.3237°W
Report Text: KRIC 230654Z 00000KT 10SM FEW250 03/M08 A3029 RMK AO2 SLP262 T00281078
Loading
Personal Weather Stations






























Interactive Weather Map New forecast layout! Learn more

10-Day Weather Forecast

Advertisements
Track Severe Weather on mobile